createdAt,value
2022-11-23T00:03:44.514Z,98.5
2022-11-23T00:08:50.716Z,98.5
2022-11-23T00:13:56.925Z,98.5
2022-11-23T00:19:03.129Z,98.5
2022-11-23T00:24:09.358Z,98.5
2022-11-23T00:29:15.546Z,98.5
2022-11-23T00:34:21.752Z,98.5
2022-11-23T00:39:27.983Z,98.5
2022-11-23T00:44:34.172Z,98.5
2022-11-23T00:49:40.375Z,98.5
2022-11-23T00:54:46.589Z,98.5
2022-11-23T00:59:52.813Z,98.5
2022-11-23T01:04:59.010Z,98.5
2022-11-23T01:10:05.208Z,98.5
2022-11-23T01:15:11.418Z,98.5
2022-11-23T01:20:17.629Z,98.5
2022-11-23T01:25:23.830Z,98.5
2022-11-23T01:30:30.051Z,98.5
2022-11-23T01:35:36.254Z,98.5
2022-11-23T01:40:41.487Z,98.5
2022-11-23T01:45:47.700Z,98.5
2022-11-23T01:50:52.932Z,98.5
2022-11-23T01:55:59.142Z,98.5
2022-11-23T02:01:04.411Z,98.5
2022-11-23T02:06:10.596Z,98.5
2022-11-23T02:11:16.789Z,98.5
2022-11-23T02:16:23.001Z,98.5
2022-11-23T02:21:29.207Z,98.5
2022-11-23T02:26:35.412Z,98.5
2022-11-23T02:31:41.624Z,98.5
2022-11-23T02:36:47.834Z,98.5
2022-11-23T02:41:54.050Z,98.5
2022-11-23T02:47:00.306Z,98.5
2022-11-23T02:52:06.452Z,98.5
2022-11-23T02:57:11.684Z,98.5
2022-11-23T03:02:17.890Z,98.5
2022-11-23T03:07:24.193Z,98.5
2022-11-23T03:12:30.298Z,98.0
2022-11-23T03:17:36.611Z,98.0
2022-11-23T03:22:42.726Z,98.0
2022-11-23T03:27:48.932Z,98.0
2022-11-23T03:32:55.131Z,98.0
2022-11-23T03:38:01.340Z,98.0
2022-11-23T03:43:07.552Z,98.0
2022-11-23T03:48:12.785Z,98.0
2022-11-23T03:53:19.032Z,98.0
2022-11-23T03:58:24.233Z,98.0
2022-11-23T04:03:30.470Z,98.0
2022-11-23T04:08:36.676Z,98.0
2022-11-23T04:13:42.858Z,98.0
2022-11-23T04:18:49.060Z,98.0
2022-11-23T04:23:55.269Z,98.0
2022-11-23T04:29:01.480Z,97.5
2022-11-23T04:34:07.684Z,98.0
2022-11-23T04:39:13.891Z,97.5
2022-11-23T04:44:20.099Z,97.5
2022-11-23T04:49:26.307Z,97.5
2022-11-23T04:54:32.528Z,97.5
2022-11-23T04:59:38.729Z,97.5
2022-11-23T05:04:44.931Z,97.5
2022-11-23T05:09:51.143Z,97.5
2022-11-23T05:14:57.367Z,97.5
2022-11-23T05:20:03.822Z,97.5
2022-11-23T05:25:09.763Z,97.5
2022-11-23T05:30:15.982Z,97.5
2022-11-23T05:35:22.175Z,97.5
2022-11-23T05:40:28.383Z,97.5
2022-11-23T05:45:33.621Z,97.5
2022-11-23T05:50:39.825Z,97.0
2022-11-23T05:55:46.059Z,97.0
2022-11-23T06:00:51.274Z,97.0
2022-11-23T06:05:57.480Z,97.0
2022-11-23T06:11:03.688Z,97.0
2022-11-23T06:16:09.895Z,97.0
2022-11-23T06:21:16.107Z,96.5
2022-11-23T06:26:22.359Z,96.5
2022-11-23T06:31:28.518Z,96.5
2022-11-23T06:36:34.850Z,96.5
2022-11-23T06:41:40.937Z,96.5
2022-11-23T06:46:47.142Z,96.5
2022-11-23T06:51:53.398Z,96.5
2022-11-23T06:56:59.564Z,96.5
2022-11-23T07:02:05.798Z,96.5
2022-11-23T07:07:12.096Z,96.5
2022-11-23T07:12:18.181Z,96.5
2022-11-23T07:17:24.388Z,96.5
2022-11-23T07:22:30.598Z,96.5
2022-11-23T07:27:36.803Z,96.5
2022-11-23T07:32:43.013Z,96.5
2022-11-23T07:37:49.250Z,96.5
2022-11-23T07:42:55.433Z,96.5
2022-11-23T07:48:00.672Z,96.5
2022-11-23T07:53:06.873Z,96.5
2022-11-23T07:58:12.121Z,96.0
2022-11-23T08:08:24.537Z,96.0
2022-11-23T08:13:30.731Z,96.0
2022-11-23T08:18:36.935Z,96.0
2022-11-23T08:23:43.422Z,96.0
2022-11-23T08:28:49.351Z,96.0
2022-11-23T08:33:58.936Z,96.0
2022-11-23T08:39:01.772Z,95.5
2022-11-23T08:44:07.976Z,95.5
2022-11-23T08:49:14.185Z,95.5
2022-11-23T08:54:20.404Z,95.5
2022-11-23T08:59:26.602Z,95.5
2022-11-23T09:04:33.018Z,95.5
2022-11-23T09:09:39.021Z,95.5
2022-11-23T09:14:45.230Z,95.5
2022-11-23T09:19:51.440Z,95.0
2022-11-23T09:24:57.688Z,95.0
2022-11-23T09:30:03.863Z,95.0
2022-11-23T09:35:10.055Z,95.0
2022-11-23T09:40:16.267Z,95.0
2022-11-23T09:45:21.499Z,94.5
2022-11-23T09:50:27.710Z,94.5
2022-11-23T09:55:32.941Z,94.5
2022-11-23T10:00:39.150Z,94.5
2022-11-23T10:05:45.359Z,94.0
2022-11-23T10:10:51.566Z,94.0
2022-11-23T10:15:57.777Z,94.0
2022-11-23T10:21:03.983Z,93.5
2022-11-23T10:26:10.189Z,93.5
2022-11-23T10:31:16.404Z,93.0
2022-11-23T10:36:22.602Z,93.0
2022-11-23T10:41:28.810Z,93.0
2022-11-23T10:46:35.019Z,93.0
2022-11-23T10:51:41.243Z,93.0
2022-11-23T10:56:47.434Z,92.5
2022-11-23T11:01:53.687Z,92.5
2022-11-23T11:06:59.851Z,92.0
2022-11-23T11:12:06.058Z,92.0
2022-11-23T11:17:12.267Z,92.0
2022-11-23T11:22:18.476Z,91.5
2022-11-23T11:27:24.694Z,91.5
2022-11-23T11:32:30.895Z,91.0
2022-11-23T11:37:37.094Z,91.0
2022-11-23T11:42:42.335Z,91.0
2022-11-23T11:47:48.540Z,91.0
2022-11-23T11:52:53.792Z,90.5
2022-11-23T11:58:00.031Z,90.0
2022-11-23T12:03:06.254Z,90.0
2022-11-23T12:08:12.397Z,89.5
2022-11-23T12:13:18.631Z,90.0
2022-11-23T12:18:24.815Z,89.5
2022-11-23T12:23:31.093Z,89.5
2022-11-23T12:28:37.229Z,89.0
2022-11-23T12:33:43.447Z,88.5
2022-11-23T12:38:49.647Z,88.5
2022-11-23T12:43:55.864Z,88.5
2022-11-23T12:49:02.077Z,88.5
2022-11-23T12:54:08.333Z,88.0
2022-11-23T12:59:14.485Z,87.5
2022-11-23T13:04:20.710Z,87.5
2022-11-23T13:09:26.898Z,87.0
2022-11-23T13:14:33.516Z,87.0
2022-11-23T13:19:39.315Z,87.0
2022-11-23T13:24:45.563Z,86.5
2022-11-23T13:29:51.747Z,86.5
2022-11-23T13:34:57.939Z,86.5
2022-11-23T13:40:03.174Z,86.0
2022-11-23T13:45:09.393Z,86.5
2022-11-23T13:50:14.609Z,86.0
2022-11-23T13:55:20.822Z,86.0
2022-11-23T14:00:27.336Z,86.0
2022-11-23T14:10:39.446Z,86.0
2022-11-23T14:15:45.653Z,86.0
2022-11-23T14:20:51.876Z,86.0
2022-11-23T14:25:58.086Z,86.0
2022-11-23T14:31:04.343Z,86.5
2022-11-23T14:36:10.495Z,86.5
2022-11-23T14:41:16.707Z,87.0
2022-11-23T14:46:22.990Z,87.5
2022-11-23T14:51:29.119Z,88.0
2022-11-23T14:56:35.335Z,88.5
2022-11-23T15:01:41.535Z,89.5
2022-11-23T15:06:47.740Z,90.0
2022-11-23T15:11:53.959Z,90.0
2022-11-23T15:17:00.248Z,90.5
2022-11-23T15:22:06.357Z,91.0
2022-11-23T15:27:12.883Z,91.0
2022-11-23T15:32:31.388Z,91.5
2022-11-23T15:37:24.982Z,91.5
2022-11-23T15:42:30.294Z,92.0
2022-11-23T15:47:36.429Z,92.0
2022-11-23T15:52:41.663Z,92.5
2022-11-23T15:57:47.872Z,92.5
2022-11-23T16:02:54.215Z,93.0
2022-11-23T16:08:00.302Z,93.0
2022-11-23T16:13:06.501Z,93.5
2022-11-23T16:18:12.702Z,93.5
2022-11-23T16:23:18.907Z,93.5
2022-11-23T16:28:25.119Z,94.0
2022-11-23T16:33:31.324Z,94.0
2022-11-23T16:38:37.531Z,94.5
2022-11-23T16:43:43.748Z,94.5
2022-11-23T16:59:02.365Z,95.0
2022-11-23T17:04:08.603Z,95.0
2022-11-23T17:09:14.784Z,95.0
2022-11-23T17:14:25.337Z,95.5
2022-11-23T17:19:27.211Z,95.5
2022-11-23T17:24:33.750Z,95.5
2022-11-23T17:29:42.185Z,95.5
2022-11-23T17:34:45.822Z,95.5
2022-11-23T17:39:52.035Z,96.0
2022-11-23T17:44:57.274Z,96.0
2022-11-23T17:50:03.482Z,96.0
2022-11-23T17:55:09.677Z,96.0
2022-11-23T18:00:15.884Z,96.0
2022-11-23T18:05:22.416Z,96.0
2022-11-23T18:10:28.305Z,96.0
2022-11-23T18:15:34.597Z,96.0
2022-11-23T18:20:40.726Z,96.5
2022-11-23T18:25:46.928Z,96.5
2022-11-23T18:30:53.159Z,96.5
2022-11-23T18:36:02.157Z,96.5
2022-11-23T18:41:05.554Z,96.5
2022-11-23T18:46:11.787Z,96.5
2022-11-23T18:51:18.230Z,96.5
2022-11-23T18:56:24.171Z,96.5
2022-11-23T19:01:30.507Z,96.5
2022-11-23T19:06:36.594Z,96.5
2022-11-23T19:11:42.795Z,96.5
2022-11-23T19:16:49.001Z,96.5
2022-11-23T19:21:55.225Z,96.5
2022-11-23T19:27:01.417Z,96.5
2022-11-23T19:32:06.655Z,96.5
2022-11-23T19:37:12.855Z,96.5
2022-11-23T19:42:18.092Z,96.5
2022-11-23T19:47:24.305Z,96.5
2022-11-23T19:52:55.499Z,96.5
2022-11-23T19:57:36.717Z,96.5
2022-11-23T20:02:41.940Z,97.0
2022-11-23T20:07:48.208Z,97.0
2022-11-23T20:12:54.372Z,97.0
2022-11-23T20:18:00.648Z,97.0
2022-11-23T20:23:06.795Z,97.0
2022-11-23T20:28:12.991Z,97.0
2022-11-23T20:33:19.279Z,97.5
2022-11-23T20:38:25.403Z,97.5
2022-11-23T20:43:31.608Z,97.5
2022-11-23T20:48:37.816Z,97.5
2022-11-23T20:53:44.020Z,97.5
2022-11-23T20:58:50.228Z,97.5
2022-11-23T21:03:56.436Z,98.0
2022-11-23T21:09:02.646Z,98.0
2022-11-23T21:14:13.953Z,98.0
2022-11-23T21:19:15.064Z,98.0
2022-11-23T21:24:21.270Z,98.5
2022-11-23T21:29:26.580Z,98.5
2022-11-23T21:34:33.060Z,98.5
2022-11-23T21:44:45.135Z,98.5
2022-11-23T21:49:51.336Z,98.5
2022-11-23T21:54:57.563Z,98.5
2022-11-23T22:05:09.986Z,98.0
2022-11-23T22:10:16.165Z,98.0
2022-11-23T22:15:22.373Z,98.0
2022-11-23T22:20:28.586Z,98.0
2022-11-23T22:25:34.795Z,98.0
2022-11-23T22:30:40.998Z,98.0
2022-11-23T22:35:46.240Z,98.0
2022-11-23T22:40:58.563Z,98.0
2022-11-23T22:46:05.620Z,98.0
2022-11-23T22:51:16.128Z,98.0
2022-11-23T22:56:28.461Z,98.0
2022-11-23T23:01:40.776Z,98.0
2022-11-23T23:06:53.097Z,98.0
2022-11-23T23:12:05.424Z,98.0
2022-11-23T23:17:16.778Z,98.0
2022-11-23T23:22:22.985Z,98.0
2022-11-23T23:27:29.237Z,98.0
2022-11-23T23:32:35.416Z,98.0
2022-11-23T23:37:41.613Z,98.0
2022-11-23T23:42:47.840Z,98.0
2022-11-23T23:47:54.021Z,98.0
2022-11-23T23:53:00.234Z,98.0
2022-11-23T23:58:06.438Z,98.0
